createdAt,value
2023-02-19T00:01:43.833Z,8.18
2023-02-19T00:04:15.131Z,8.31
2023-02-19T00:06:44.111Z,8.48
2023-02-19T00:09:12.181Z,8.37
2023-02-19T00:11:40.136Z,8.36
2023-02-19T00:14:08.726Z,8.32
2023-02-19T00:16:38.745Z,8.31
2023-02-19T00:19:08.823Z,8.26
2023-02-19T00:21:37.981Z,8.33
2023-02-19T00:24:09.214Z,8.29
2023-02-19T00:26:39.574Z,8.25
2023-02-19T00:29:07.318Z,8.12
2023-02-19T00:31:36.916Z,8.23
2023-02-19T00:34:07.192Z,8.15
2023-02-19T00:36:36.128Z,8.23
2023-02-19T00:39:05.757Z,8.22
2023-02-19T00:41:34.013Z,8.19
2023-02-19T00:44:03.102Z,8.15
2023-02-19T00:46:32.205Z,8.38
2023-02-19T00:49:00.669Z,8.02
2023-02-19T00:51:30.818Z,8.11
2023-02-19T00:53:59.386Z,8.17
2023-02-19T00:56:28.846Z,8.21
2023-02-19T00:59:00.068Z,8.32
2023-02-19T01:01:27.922Z,8.26
2023-02-19T01:03:55.848Z,8.13
2023-02-19T01:06:23.612Z,8.22
2023-02-19T01:08:51.963Z,8.24
2023-02-19T01:11:20.377Z,8.23
2023-02-19T01:13:49.612Z,8.10
2023-02-19T01:16:19.302Z,8.08
2023-02-19T01:18:47.716Z,8.12
2023-02-19T01:21:18.171Z,8.15
2023-02-19T01:23:47.261Z,8.20
2023-02-19T01:26:16.813Z,8.17
2023-02-19T01:28:44.848Z,8.09
2023-02-19T01:31:16.332Z,8.24
2023-02-19T01:33:46.944Z,8.33
2023-02-19T01:36:15.698Z,8.29
2023-02-19T01:38:43.496Z,8.07
2023-02-19T01:41:13.829Z,8.20
2023-02-19T01:44:00.337Z,8.13
2023-02-19T01:46:30.678Z,8.13
2023-02-19T01:49:02.061Z,8.07
2023-02-19T01:51:33.410Z,8.06
2023-02-19T01:54:05.854Z,8.07
2023-02-19T01:56:35.583Z,7.97
2023-02-19T01:59:04.293Z,8.09
2023-02-19T02:01:33.785Z,8.01
2023-02-19T02:04:01.925Z,8.03
2023-02-19T02:06:32.454Z,8.11
2023-02-19T02:09:19.056Z,8.01
2023-02-19T02:11:49.752Z,8.12
2023-02-19T02:14:19.416Z,8.04
2023-02-19T02:16:57.125Z,8.12
2023-02-19T02:20:03.690Z,7.97
2023-02-19T02:22:38.226Z,8.05
2023-02-19T02:25:37.616Z,8.14
2023-02-19T02:28:23.385Z,8.12
2023-02-19T02:30:55.793Z,8.07
2023-02-19T02:33:32.982Z,8.02
2023-02-19T02:36:07.022Z,8.00
2023-02-19T02:38:39.795Z,8.08
2023-02-19T02:41:08.402Z,8.03
2023-02-19T02:43:36.778Z,8.15
2023-02-19T02:46:12.273Z,8.01
2023-02-19T02:48:44.687Z,7.99
2023-02-19T02:51:19.053Z,7.96
2023-02-19T02:54:15.319Z,8.01
2023-02-19T02:56:46.094Z,8.15
2023-02-19T02:59:19.678Z,8.03
2023-02-19T03:02:11.376Z,8.08
2023-02-19T03:05:06.359Z,8.16
2023-02-19T03:07:36.989Z,8.16
2023-02-19T03:10:08.344Z,8.17
2023-02-19T03:12:57.591Z,8.04
2023-02-19T03:15:46.056Z,8.06
2023-02-19T03:18:35.225Z,8.05
2023-02-19T03:21:07.510Z,8.21
2023-02-19T03:23:56.832Z,8.16
2023-02-19T03:26:27.242Z,8.25
2023-02-19T03:29:15.053Z,8.10
2023-02-19T03:31:47.713Z,8.20
2023-02-19T03:34:20.631Z,8.20
2023-02-19T03:36:57.577Z,8.10
2023-02-19T03:39:25.683Z,8.21
2023-02-19T03:42:02.531Z,8.24
2023-02-19T03:44:42.493Z,8.30
2023-02-19T03:47:17.084Z,8.21
2023-02-19T03:49:49.578Z,8.28
2023-02-19T03:52:26.190Z,8.30
2023-02-19T03:54:59.510Z,8.26
2023-02-19T03:57:38.480Z,8.29
2023-02-19T04:00:12.438Z,8.46
2023-02-19T04:02:44.777Z,8.49
2023-02-19T04:05:17.834Z,8.47
2023-02-19T04:07:50.287Z,8.36
2023-02-19T04:10:22.814Z,8.30
2023-02-19T04:12:59.002Z,8.24
2023-02-19T04:15:30.462Z,8.25
2023-02-19T04:18:01.602Z,8.26
2023-02-19T04:20:35.218Z,8.10
2023-02-19T04:23:03.435Z,8.06
2023-02-19T04:25:33.244Z,8.07
2023-02-19T04:28:01.348Z,8.24
2023-02-19T04:30:29.308Z,7.94
2023-02-19T04:32:57.168Z,7.96
2023-02-19T04:35:24.917Z,8.05
2023-02-19T04:37:54.053Z,8.05
2023-02-19T04:40:21.782Z,7.97
2023-02-19T04:42:51.825Z,7.92
2023-02-19T04:45:19.533Z,7.99
2023-02-19T04:47:47.315Z,8.13
2023-02-19T04:50:15.363Z,8.13
2023-02-19T04:52:43.200Z,7.83
2023-02-19T04:55:12.472Z,7.96
2023-02-19T04:57:40.196Z,8.06
2023-02-19T05:00:09.646Z,7.93
2023-02-19T05:02:37.406Z,8.00
2023-02-19T05:05:05.597Z,8.01
2023-02-19T05:07:34.068Z,8.12
2023-02-19T05:10:02.378Z,7.96
2023-02-19T05:12:32.506Z,8.10
2023-02-19T05:15:00.465Z,8.04
2023-02-19T05:17:28.214Z,8.06
2023-02-19T05:19:55.930Z,8.02
2023-02-19T05:22:23.654Z,7.98
2023-02-19T05:24:51.375Z,8.01
2023-02-19T05:27:19.098Z,8.17
2023-02-19T05:29:48.113Z,8.04
2023-02-19T05:32:15.971Z,8.11
2023-02-19T05:34:43.756Z,8.05
2023-02-19T05:37:11.497Z,8.20
2023-02-19T05:39:39.193Z,8.10
2023-02-19T05:42:06.973Z,8.06
2023-02-19T05:44:34.749Z,8.12
2023-02-19T05:47:03.853Z,8.08
2023-02-19T05:49:31.574Z,8.04
2023-02-19T05:51:59.297Z,8.04
2023-02-19T05:54:29.815Z,8.00
2023-02-19T05:56:57.809Z,8.05
2023-02-19T05:59:27.061Z,8.20
2023-02-19T06:01:55.953Z,8.27
2023-02-19T06:04:25.108Z,8.17
2023-02-19T06:06:52.902Z,8.30
2023-02-19T06:09:20.635Z,8.15
2023-02-19T06:11:48.341Z,8.19
2023-02-19T06:14:16.286Z,8.14
2023-02-19T06:16:44.031Z,8.18
2023-02-19T06:19:11.839Z,8.28
2023-02-19T06:21:41.453Z,8.07
2023-02-19T06:24:10.630Z,8.27
2023-02-19T06:26:39.418Z,8.24
2023-02-19T06:29:07.084Z,8.20
2023-02-19T06:31:34.914Z,8.45
2023-02-19T06:34:05.199Z,8.76
2023-02-19T06:36:33.300Z,8.31
2023-02-19T06:39:03.196Z,8.43
2023-02-19T06:41:31.034Z,8.18
2023-02-19T06:43:58.823Z,8.19
2023-02-19T06:46:26.885Z,8.18
2023-02-19T06:48:54.652Z,8.26
2023-02-19T06:51:27.184Z,8.21
2023-02-19T06:53:55.222Z,8.23
2023-02-19T06:56:27.442Z,8.33
2023-02-19T06:58:56.530Z,8.19
2023-02-19T07:01:24.918Z,8.27
2023-02-19T07:03:53.476Z,8.31
2023-02-19T07:06:21.999Z,8.31
2023-02-19T07:08:49.988Z,8.22
2023-02-19T07:11:18.621Z,8.22
2023-02-19T07:13:48.114Z,8.08
2023-02-19T07:16:20.590Z,8.40
2023-02-19T07:18:48.354Z,8.15
2023-02-19T07:21:17.008Z,8.24
2023-02-19T07:23:45.844Z,8.12
2023-02-19T07:26:15.203Z,8.16
2023-02-19T07:28:43.188Z,8.10
2023-02-19T07:31:13.333Z,8.20
2023-02-19T07:33:43.713Z,8.22
2023-02-19T07:36:13.291Z,8.10
2023-02-19T07:38:41.096Z,8.16
2023-02-19T07:41:09.021Z,8.07
2023-02-19T07:43:38.762Z,8.21
2023-02-19T07:46:08.321Z,8.20
2023-02-19T07:48:38.382Z,8.42
2023-02-19T07:51:07.771Z,8.37
2023-02-19T07:53:36.476Z,8.45
2023-02-19T07:56:07.350Z,8.83
2023-02-19T07:58:35.999Z,8.56
2023-02-19T08:01:12.042Z,8.77
2023-02-19T08:03:40.480Z,8.48
2023-02-19T08:06:11.086Z,8.43
2023-02-19T08:08:39.418Z,8.58
2023-02-19T08:11:25.428Z,8.48
2023-02-19T08:13:54.024Z,8.43
2023-02-19T08:16:36.799Z,8.62
2023-02-19T08:19:10.107Z,8.34
2023-02-19T08:21:39.240Z,8.27
2023-02-19T08:24:07.452Z,8.24
2023-02-19T08:26:35.618Z,8.41
2023-02-19T08:29:03.810Z,8.43
2023-02-19T08:31:31.617Z,8.31
2023-02-19T08:33:59.431Z,8.30
2023-02-19T08:36:28.831Z,8.42
2023-02-19T08:38:56.742Z,8.43
2023-02-19T08:41:24.505Z,8.39
2023-02-19T08:43:52.282Z,8.56
2023-02-19T08:46:20.287Z,8.53
2023-02-19T08:48:48.199Z,8.58
2023-02-19T08:51:16.021Z,8.52
2023-02-19T08:53:45.261Z,8.68
2023-02-19T08:56:15.530Z,8.63
2023-02-19T08:58:43.581Z,8.82
2023-02-19T09:01:13.037Z,9.00
2023-02-19T09:03:41.237Z,8.83
2023-02-19T09:06:09.624Z,9.07
2023-02-19T09:08:37.627Z,8.91
2023-02-19T09:11:07.095Z,8.90
2023-02-19T09:13:35.071Z,8.89
2023-02-19T09:16:04.354Z,8.84
2023-02-19T09:18:32.456Z,8.77
2023-02-19T09:21:02.145Z,8.80
2023-02-19T09:23:29.876Z,8.84
2023-02-19T09:26:00.972Z,8.77
2023-02-19T09:28:30.241Z,8.72
2023-02-19T09:30:58.006Z,8.66
2023-02-19T09:33:25.769Z,8.72
2023-02-19T09:35:53.528Z,8.86
2023-02-19T09:38:21.397Z,9.02
2023-02-19T09:40:49.698Z,9.01
2023-02-19T09:43:21.284Z,8.99
2023-02-19T09:45:55.638Z,9.27
2023-02-19T09:48:23.232Z,9.30
2023-02-19T09:50:51.023Z,9.15
2023-02-19T09:53:26.175Z,9.39
2023-02-19T09:55:54.190Z,9.40
2023-02-19T09:58:29.912Z,9.47
2023-02-19T10:01:02.023Z,9.52
2023-02-19T10:03:35.746Z,9.72
2023-02-19T10:06:11.154Z,9.65
2023-02-19T10:08:41.258Z,9.70
2023-02-19T10:11:12.999Z,9.61
2023-02-19T10:13:45.219Z,9.64
2023-02-19T10:16:19.021Z,9.59
2023-02-19T10:18:47.719Z,9.71
2023-02-19T10:21:19.590Z,9.97
2023-02-19T10:23:50.163Z,9.80
2023-02-19T10:26:18.374Z,9.51
2023-02-19T10:28:46.623Z,9.55
2023-02-19T10:31:20.940Z,9.40
2023-02-19T10:33:49.978Z,9.55
2023-02-19T10:36:27.516Z,9.49
2023-02-19T10:38:57.668Z,9.80
2023-02-19T10:41:27.427Z,9.66
2023-02-19T10:43:57.931Z,9.83
2023-02-19T10:46:29.721Z,9.55
2023-02-19T10:49:00.374Z,9.71
2023-02-19T10:51:33.924Z,9.64
2023-02-19T10:54:06.952Z,9.51
2023-02-19T10:56:35.161Z,9.37
2023-02-19T10:59:21.872Z,9.24
2023-02-19T11:01:58.742Z,8.93
2023-02-19T11:04:28.013Z,8.95
2023-02-19T11:06:57.374Z,8.54
2023-02-19T11:09:29.278Z,8.66
2023-02-19T11:11:59.367Z,8.78
2023-02-19T11:14:28.291Z,9.03
2023-02-19T11:16:59.526Z,9.14
2023-02-19T11:19:36.511Z,9.37
2023-02-19T11:22:20.934Z,9.65
2023-02-19T11:24:50.726Z,9.72
2023-02-19T11:27:20.877Z,9.64
2023-02-19T11:29:48.927Z,9.83
2023-02-19T11:32:27.728Z,9.71
2023-02-19T11:35:18.535Z,9.64
2023-02-19T11:37:57.981Z,9.62
2023-02-19T11:40:37.311Z,9.60
2023-02-19T11:43:17.271Z,9.64
2023-02-19T11:45:52.778Z,9.79
2023-02-19T11:48:34.005Z,9.72
2023-02-19T11:51:25.405Z,10.01
2023-02-19T11:54:04.939Z,9.87
2023-02-19T11:56:37.049Z,10.27
2023-02-19T11:59:06.466Z,10.06
2023-02-19T12:01:57.937Z,9.80
2023-02-19T12:05:10.473Z,9.94
2023-02-19T12:08:10.287Z,9.95
2023-02-19T12:10:53.291Z,9.92
2023-02-19T12:13:29.015Z,9.91
2023-02-19T12:16:18.717Z,10.12
2023-02-19T12:19:05.322Z,10.28
2023-02-19T12:22:01.206Z,10.26
2023-02-19T12:25:04.401Z,10.24
2023-02-19T12:27:45.139Z,10.31
2023-02-19T12:30:39.153Z,10.23
2023-02-19T12:33:31.048Z,10.18
2023-02-19T12:36:11.457Z,10.62
2023-02-19T12:38:44.681Z,10.42
2023-02-19T12:44:22.402Z,10.20
2023-02-19T12:46:54.406Z,10.19
2023-02-19T12:49:28.890Z,10.44
2023-02-19T12:51:59.488Z,10.27
2023-02-19T12:54:31.248Z,10.04
2023-02-19T12:57:04.080Z,9.83
2023-02-19T12:59:38.030Z,10.02
2023-02-19T13:02:14.847Z,9.37
2023-02-19T13:04:48.546Z,9.61
2023-02-19T13:07:21.483Z,9.49
2023-02-19T13:09:52.939Z,9.54
2023-02-19T13:12:25.491Z,9.80
2023-02-19T13:14:58.960Z,9.93
2023-02-19T13:17:33.333Z,10.07
2023-02-19T13:20:03.938Z,9.86
2023-02-19T13:22:57.197Z,10.01
2023-02-19T13:25:32.759Z,9.82
2023-02-19T13:28:12.760Z,9.82
2023-02-19T13:31:07.155Z,9.28
2023-02-19T13:33:44.234Z,9.18
2023-02-19T13:36:15.429Z,8.80
2023-02-19T13:38:45.818Z,8.75
2023-02-19T13:41:29.071Z,8.96
2023-02-19T13:44:03.302Z,8.94
2023-02-19T13:46:41.302Z,9.22
2023-02-19T13:49:45.569Z,9.36
2023-02-19T13:52:38.113Z,9.81
2023-02-19T13:55:44.134Z,9.94
2023-02-19T13:58:37.759Z,10.37
2023-02-19T14:01:07.138Z,10.20
2023-02-19T14:03:51.016Z,10.59
2023-02-19T14:06:18.966Z,10.91
2023-02-19T14:08:53.165Z,10.97
2023-02-19T14:11:59.669Z,11.35
2023-02-19T14:14:29.413Z,10.39
2023-02-19T14:17:07.482Z,10.53
2023-02-19T14:19:56.756Z,10.66
2023-02-19T14:23:02.470Z,10.05
2023-02-19T14:25:53.166Z,10.20
2023-02-19T14:28:30.056Z,10.29
2023-02-19T14:31:00.981Z,10.12
2023-02-19T14:33:31.525Z,10.21
2023-02-19T14:36:05.753Z,10.18
2023-02-19T14:38:38.072Z,9.98
2023-02-19T14:41:07.401Z,10.06
2023-02-19T14:43:36.608Z,10.26
2023-02-19T14:46:10.778Z,10.11
2023-02-19T14:48:43.780Z,10.23
2023-02-19T14:51:16.169Z,10.27
2023-02-19T14:53:46.482Z,10.37
2023-02-19T14:56:21.699Z,10.15
2023-02-19T14:59:07.056Z,10.01
2023-02-19T15:01:34.950Z,9.89
2023-02-19T15:04:02.772Z,9.95
2023-02-19T15:06:33.422Z,10.03
2023-02-19T15:09:05.008Z,10.03
2023-02-19T15:11:34.395Z,10.14
2023-02-19T15:14:04.965Z,9.92
2023-02-19T15:16:35.664Z,10.14
2023-02-19T15:19:07.862Z,9.83
2023-02-19T15:21:40.968Z,9.83
2023-02-19T15:24:09.040Z,9.90
2023-02-19T15:26:39.044Z,10.08
2023-02-19T15:29:12.117Z,9.91
2023-02-19T15:31:46.488Z,9.96
2023-02-19T15:34:18.382Z,9.89
2023-02-19T15:36:49.055Z,10.08
2023-02-19T15:39:24.703Z,9.94
2023-02-19T15:41:58.493Z,9.83
2023-02-19T15:44:42.937Z,9.86
2023-02-19T15:47:20.230Z,9.84
2023-02-19T15:49:53.965Z,9.93
2023-02-19T15:52:29.664Z,9.78
2023-02-19T15:55:02.892Z,9.84
2023-02-19T15:57:36.305Z,9.76
2023-02-19T16:00:12.834Z,9.88
2023-02-19T16:02:45.626Z,9.79
2023-02-19T16:05:18.150Z,9.95
2023-02-19T16:07:47.387Z,9.85
2023-02-19T16:10:23.173Z,9.81
2023-02-19T16:12:59.476Z,9.99
2023-02-19T16:15:31.598Z,9.70
2023-02-19T16:18:00.470Z,9.66
2023-02-19T16:20:31.941Z,9.72
2023-02-19T16:23:10.890Z,9.80
2023-02-19T16:25:45.048Z,9.57
2023-02-19T16:28:24.015Z,9.51
2023-02-19T16:31:01.891Z,9.64
2023-02-19T16:33:37.701Z,9.64
2023-02-19T16:36:20.905Z,9.58
2023-02-19T16:39:23.956Z,9.46
2023-02-19T16:42:14.401Z,9.34
2023-02-19T16:44:46.372Z,9.25
2023-02-19T16:47:41.543Z,9.33
2023-02-19T16:50:15.407Z,9.22
2023-02-19T16:52:58.454Z,9.09
2023-02-19T16:55:34.758Z,9.25
2023-02-19T16:58:02.531Z,9.25
2023-02-19T17:00:33.973Z,9.20
2023-02-19T17:03:09.402Z,9.34
2023-02-19T17:05:39.711Z,9.19
2023-02-19T17:08:31.180Z,9.19
2023-02-19T17:11:00.918Z,9.07
2023-02-19T17:13:31.230Z,9.27
2023-02-19T17:16:13.194Z,9.18
2023-02-19T17:18:43.960Z,9.03
2023-02-19T17:21:16.412Z,9.21
2023-02-19T17:23:46.500Z,9.31
2023-02-19T17:26:17.442Z,9.17
2023-02-19T17:28:45.246Z,9.28
2023-02-19T17:31:16.682Z,9.29
2023-02-19T17:33:45.124Z,9.13
2023-02-19T17:36:22.920Z,9.08
2023-02-19T17:38:57.407Z,9.08
2023-02-19T17:41:30.633Z,9.24
2023-02-19T17:43:58.409Z,9.27
2023-02-19T17:46:30.708Z,9.28
2023-02-19T17:48:58.560Z,9.10
2023-02-19T17:51:27.928Z,9.06
2023-02-19T17:53:55.607Z,9.15
2023-02-19T17:56:26.348Z,9.19
2023-02-19T17:58:56.707Z,9.17
2023-02-19T18:01:26.278Z,9.08
2023-02-19T18:03:54.151Z,9.08
2023-02-19T18:06:24.326Z,9.36
2023-02-19T18:08:54.254Z,9.10
2023-02-19T18:11:24.521Z,9.26
2023-02-19T18:13:52.988Z,9.16
2023-02-19T18:16:24.935Z,9.12
2023-02-19T18:18:52.751Z,9.25
2023-02-19T18:21:22.677Z,9.20
2023-02-19T18:23:50.416Z,9.20
2023-02-19T18:26:20.374Z,8.98
2023-02-19T18:28:48.096Z,9.20
2023-02-19T18:31:21.772Z,9.17
2023-02-19T18:33:50.960Z,9.23
2023-02-19T18:36:18.731Z,9.19
2023-02-19T18:38:48.020Z,9.20
2023-02-19T18:41:22.729Z,9.32
2023-02-19T18:43:50.464Z,9.51
2023-02-19T18:46:22.158Z,9.30
2023-02-19T18:48:54.052Z,9.16
2023-02-19T18:51:23.376Z,9.24
2023-02-19T18:53:51.472Z,9.21
2023-02-19T18:56:19.338Z,9.13
2023-02-19T18:58:49.231Z,9.28
2023-02-19T19:01:18.045Z,9.13
2023-02-19T19:03:48.998Z,9.08
2023-02-19T19:06:23.530Z,9.29
2023-02-19T19:08:54.112Z,9.51
2023-02-19T19:11:23.842Z,9.14
2023-02-19T19:13:54.659Z,9.03
2023-02-19T19:16:34.441Z,9.10
2023-02-19T19:19:03.816Z,9.17
2023-02-19T19:21:35.598Z,9.24
2023-02-19T19:24:10.092Z,9.17
2023-02-19T19:26:37.683Z,9.04
2023-02-19T19:29:05.663Z,9.14
2023-02-19T19:31:37.068Z,9.27
2023-02-19T19:34:07.524Z,9.16
2023-02-19T19:36:38.183Z,9.04
2023-02-19T19:39:11.274Z,9.09
2023-02-19T19:41:43.122Z,9.06
2023-02-19T19:44:17.031Z,9.15
2023-02-19T19:46:47.615Z,9.10
2023-02-19T19:49:18.784Z,8.90
2023-02-19T19:51:58.703Z,8.98
2023-02-19T19:54:28.557Z,8.65
2023-02-19T19:56:59.314Z,8.68
2023-02-19T19:59:27.323Z,8.59
2023-02-19T20:01:57.809Z,8.70
2023-02-19T20:04:26.905Z,8.70
2023-02-19T20:06:56.070Z,8.63
2023-02-19T20:09:25.587Z,8.83
2023-02-19T20:11:54.513Z,8.85
2023-02-19T20:14:23.621Z,8.91
2023-02-19T20:16:51.372Z,8.83
2023-02-19T20:19:20.898Z,8.78
2023-02-19T20:21:50.368Z,8.86
2023-02-19T20:24:24.034Z,9.00
2023-02-19T20:26:52.368Z,8.84
2023-02-19T20:29:20.137Z,8.72
2023-02-19T20:31:51.635Z,8.85
2023-02-19T20:34:19.729Z,8.97
2023-02-19T20:36:49.173Z,8.99
2023-02-19T20:39:19.586Z,8.84
2023-02-19T20:41:48.179Z,8.74
2023-02-19T20:44:16.628Z,8.77
2023-02-19T20:46:45.112Z,8.75
2023-02-19T20:49:13.402Z,8.85
2023-02-19T20:51:45.460Z,8.73
2023-02-19T20:54:14.271Z,8.71
2023-02-19T20:56:46.525Z,8.61
2023-02-19T20:59:15.415Z,8.66
2023-02-19T21:01:43.478Z,8.74
2023-02-19T21:04:11.728Z,8.82
2023-02-19T21:06:40.651Z,8.90
2023-02-19T21:09:08.633Z,8.77
2023-02-19T21:11:36.928Z,8.89
2023-02-19T21:14:06.092Z,8.73
2023-02-19T21:16:34.143Z,8.75
2023-02-19T21:19:01.984Z,8.74
2023-02-19T21:21:31.473Z,8.71
2023-02-19T21:24:01.157Z,8.80
2023-02-19T21:26:36.741Z,8.72
2023-02-19T21:29:06.460Z,8.76
2023-02-19T21:31:39.621Z,8.79
2023-02-19T21:34:08.793Z,8.84
2023-02-19T21:36:37.183Z,8.83
2023-02-19T21:39:06.850Z,8.56
2023-02-19T21:41:34.697Z,8.83
2023-02-19T21:44:02.751Z,8.72
2023-02-19T21:46:32.899Z,8.59
2023-02-19T21:49:01.352Z,8.56
2023-02-19T21:51:31.353Z,8.64
2023-02-19T21:54:00.126Z,8.58
2023-02-19T21:56:29.622Z,8.63
2023-02-19T21:58:57.759Z,8.68
2023-02-19T22:01:28.528Z,8.52
2023-02-19T22:03:57.877Z,8.52
2023-02-19T22:06:29.188Z,8.41
2023-02-19T22:08:57.734Z,8.53
2023-02-19T22:11:25.756Z,8.52
2023-02-19T22:13:53.879Z,8.48
2023-02-19T22:16:22.235Z,8.53
2023-02-19T22:18:54.124Z,8.63
2023-02-19T22:21:25.153Z,8.50
2023-02-19T22:23:54.198Z,8.65
2023-02-19T22:26:23.761Z,8.68
2023-02-19T22:28:52.191Z,8.58
2023-02-19T22:31:21.557Z,8.61
2023-02-19T22:33:49.442Z,8.80
2023-02-19T22:36:19.083Z,8.59
2023-02-19T22:38:48.785Z,8.85
2023-02-19T22:41:17.075Z,8.90
2023-02-19T22:43:45.038Z,8.75
2023-02-19T22:46:17.417Z,8.81
2023-02-19T22:48:45.463Z,8.64
2023-02-19T22:51:14.041Z,8.58
2023-02-19T22:53:45.566Z,8.65
2023-02-19T22:56:16.363Z,8.59
2023-02-19T22:58:45.003Z,8.76
2023-02-19T23:01:15.887Z,8.56
2023-02-19T23:03:48.967Z,8.64
2023-02-19T23:06:18.278Z,8.49
2023-02-19T23:08:46.091Z,8.63
2023-02-19T23:11:21.993Z,8.68
2023-02-19T23:13:49.747Z,8.70
2023-02-19T23:16:17.863Z,8.63
2023-02-19T23:18:45.698Z,8.67
2023-02-19T23:21:14.025Z,8.64
2023-02-19T23:23:42.531Z,8.82
2023-02-19T23:26:10.537Z,8.42
2023-02-19T23:28:40.585Z,8.43
2023-02-19T23:31:08.721Z,8.43
2023-02-19T23:33:36.834Z,8.52
2023-02-19T23:36:05.067Z,8.42
2023-02-19T23:38:32.909Z,8.36
2023-02-19T23:41:01.074Z,8.39
2023-02-19T23:43:29.237Z,8.27
2023-02-19T23:45:58.558Z,8.32
2023-02-19T23:48:26.393Z,8.33
2023-02-19T23:50:54.279Z,8.28
2023-02-19T23:53:22.095Z,8.36
2023-02-19T23:55:49.859Z,8.44
2023-02-19T23:58:17.691Z,8.51
